Overview Statistics Trail Chart Weather Telemetry Raw packets
 

This is the latest recevied weather packets stored in our database for station/object N7BTW-13. If no packets are shown the sender has not sent any weather packets the latest 10 day(s).

<< 34 35 36 37 38 39 40 >>
Time Temp. Humidity Pressure Rain* Wind** Luminosity Snow
1788111007 19.44° C 63% - 0 mm - - -
1788110407 19.44° C 64% - 0 mm - - -
1788109807 18.89° C 67% - 0 mm - - -
1788109206 17.78° C 71% - 0 mm - - -
1788108607 17.22° C 73% - 0 mm - - -
1788108007 16.67° C 74% - 0 mm - - -
1788107405 16.11° C 78% - 0 mm - - -
1788106806 15° C 81% - 0 mm - - -
1788106207 14.44° C 82% - 0 mm - - -
1788105608 13.89° C 86% - 0 mm - - -
1788105006 12.78° C 90% - 0 mm - - -
1788104412 11.11° C 98% - 0 mm - - -
1788103807 10.56° C 99% - 0 mm - - -
1788103206 10° C 99% - 0 mm - - -
1788102607 9.44° C 99% - 0 mm - - -
1788102009 8.89° C 99% - 0 mm - - -
1788101408 8.89° C 99% - 0 mm - - -
1788100807 8.33° C 99% - 0 mm - - -
1788100207 8.33° C 99% - 0 mm - - -
1788099606 7.78° C 99% - 0 mm - - -
1788099009 7.78° C 99% - 0 mm - - -
1788098406 7.22° C 99% - 0 mm - - -
1788097810 7.22° C 99% - 0 mm - - -
1788097207 7.22° C 99% - 0 mm - - -
1788096608 7.22° C 99% - 0 mm - - -

* Rain latest hour (hover to see other rain measurements)
** Current wind speed in m/s (hover to see current wind gust speed)